Time;durP1;ratioP1;P1;durP2;ratioP2;P2;SDS_P1;SDS_P2;PMS_P1;PMS_P2;Temp;Humidity;BMP_temperature;BMP_pressure;BME280_temperature;BME280_humidity;BME280_pressure;Samples;Min_cycle;Max_cycle;Signal;HPM_P1;HPM_P2
2021/04/05 00:02:22;;;;;;;8.70;7.00;;;6.70;99.90;;;;;;5111901;28;20315;-66
2021/04/05 00:04:48;;;;;;;9.70;6.70;;;6.70;99.90;;;;;;5111870;28;20196;-66
2021/04/05 00:07:14;;;;;;;11.27;8.07;;;6.70;99.90;;;;;;5111818;28;20633;-66
2021/04/05 00:09:40;;;;;;;12.60;7.30;;;6.70;99.90;;;;;;5111560;28;20191;-66
2021/04/05 00:12:08;;;;;;;7.70;6.20;;;6.70;99.90;;;;;;5111781;28;20183;-66
2021/04/05 00:14:33;;;;;;;7.63;6.50;;;6.70;99.90;;;;;;5111720;28;20445;-66
2021/04/05 00:16:59;;;;;;;9.10;6.63;;;6.70;99.90;;;;;;5111737;28;20948;-66
2021/04/05 00:19:24;;;;;;;8.20;6.67;;;6.70;99.90;;;;;;5111402;28;20199;-66
2021/04/05 00:21:50;;;;;;;6.43;5.67;;;6.70;99.90;;;;;;5110188;28;20202;-66
2021/04/05 00:24:15;;;;;;;8.67;6.47;;;6.60;99.90;;;;;;5111594;28;20167;-66
2021/04/05 00:26:41;;;;;;;7.70;6.97;;;6.60;99.90;;;;;;5110267;28;20167;-66
2021/04/05 00:29:07;;;;;;;10.10;6.57;;;6.60;99.90;;;;;;5110871;28;20551;-66
2021/04/05 00:31:32;;;;;;;9.00;6.47;;;6.60;99.90;;;;;;5111566;28;20176;-66
2021/04/05 00:33:58;;;;;;;8.17;6.07;;;6.60;99.90;;;;;;5111598;28;20159;-66
2021/04/05 00:36:23;;;;;;;7.83;5.90;;;6.70;99.90;;;;;;5111592;28;20171;-66
2021/04/05 00:38:49;;;;;;;8.40;7.00;;;6.70;99.90;;;;;;5111445;28;20214;-66
2021/04/05 00:41:16;;;;;;;9.20;6.70;;;6.60;99.90;;;;;;5111482;28;20195;-66
2021/04/05 00:43:45;;;;;;;10.03;6.73;;;6.60;99.90;;;;;;5111486;28;20164;-66
2021/04/05 00:46:12;;;;;;;9.53;6.83;;;6.60;99.90;;;;;;5110265;28;20499;-66
2021/04/05 00:48:37;;;;;;;12.33;7.10;;;6.50;99.90;;;;;;5111598;28;20496;-66
2021/04/05 00:51:14;;;;;;;8.93;6.40;;;6.30;99.90;;;;;;5111455;28;20563;-66
2021/04/05 00:53:42;;;;;;;10.33;7.00;;;6.20;99.90;;;;;;5111755;28;20202;-66
2021/04/05 00:56:08;;;;;;;7.17;6.47;;;6.20;99.90;;;;;;5109948;28;20417;-66
2021/04/05 00:58:34;;;;;;;10.73;6.80;;;6.20;99.90;;;;;;5111251;28;20914;-66
2021/04/05 01:01:06;;;;;;;10.00;7.30;;;6.10;99.90;;;;;;5110824;28;20509;-66
2021/04/05 01:03:34;;;;;;;7.40;5.50;;;6.00;99.90;;;;;;5111617;28;20938;-66
2021/04/05 01:06:05;;;;;;;9.73;6.70;;;6.00;99.90;;;;;;5111008;28;20527;-66
2021/04/05 01:08:30;;;;;;;7.57;6.50;;;6.00;99.90;;;;;;5111144;28;20421;-66
2021/04/05 01:10:56;;;;;;;13.77;7.07;;;6.00;99.90;;;;;;5110981;28;20444;-66
2021/04/05 01:13:22;;;;;;;7.20;6.50;;;6.00;99.90;;;;;;5111069;28;20529;-66
2021/04/05 01:15:48;;;;;;;8.10;6.57;;;6.00;99.90;;;;;;5110906;28;20250;-66
2021/04/05 01:18:14;;;;;;;8.20;6.50;;;6.00;99.90;;;;;;5111000;28;20509;-66
2021/04/05 01:20:41;;;;;;;9.70;6.10;;;6.00;99.90;;;;;;5110486;28;20199;-66
2021/04/05 01:23:07;;;;;;;7.90;5.87;;;6.10;99.90;;;;;;5111215;28;20462;-66
2021/04/05 01:25:32;;;;;;;6.73;6.03;;;6.10;99.90;;;;;;5110878;28;20409;-66
2021/04/05 01:27:58;;;;;;;7.03;5.00;;;6.10;99.90;;;;;;5110863;28;20187;-66
2021/04/05 01:30:38;;;;;;;8.40;6.50;;;6.10;99.90;;;;;;5110522;28;20194;-66
2021/04/05 01:33:11;;;;;;;7.80;6.50;;;6.10;99.90;;;;;;5110869;28;20435;-66
2021/04/05 01:35:49;;;;;;;8.80;6.10;;;6.10;99.90;;;;;;5111034;28;20420;-66
2021/04/05 01:38:20;;;;;;;9.33;6.80;;;6.10;99.90;;;;;;5111051;28;20421;-66
2021/04/05 01:40:52;;;;;;;7.13;6.00;;;6.00;99.90;;;;;;5113225;28;20989;-66
2021/04/05 01:43:18;;;;;;;10.77;6.70;;;5.90;99.90;;;;;;5114718;28;20836;-66
2021/04/05 01:45:44;;;;;;;8.77;7.20;;;5.80;99.90;;;;;;5113060;28;20476;-66
2021/04/05 01:48:11;;;;;;;9.93;6.83;;;5.80;99.90;;;;;;5114668;28;20665;-66
2021/04/05 01:50:37;;;;;;;10.50;7.00;;;5.70;99.90;;;;;;5114192;28;20202;-66
2021/04/05 01:53:05;;;;;;;9.70;5.40;;;5.70;99.90;;;;;;5114510;28;20999;-66
2021/04/05 01:55:32;;;;;;;7.53;6.40;;;5.80;99.90;;;;;;5114418;28;20503;-66
2021/04/05 01:57:59;;;;;;;11.47;6.10;;;5.80;99.90;;;;;;5114956;28;20478;-66
2021/04/05 02:00:28;;;;;;;10.63;7.70;;;5.70;99.90;;;;;;5113800;28;20433;-66
2021/04/05 02:02:56;;;;;;;8.90;7.20;;;5.60;99.90;;;;;;5114589;28;20466;-66
2021/04/05 02:05:24;;;;;;;14.63;9.47;;;5.60;99.90;;;;;;5114301;28;20447;-66
2021/04/05 02:07:50;;;;;;;8.70;6.47;;;5.50;99.90;;;;;;5114211;28;20412;-66
2021/04/05 02:10:19;;;;;;;8.60;6.77;;;5.60;99.90;;;;;;5113924;28;20433;-66
2021/04/05 02:12:45;;;;;;;7.33;6.57;;;5.60;99.90;;;;;;5114101;28;20454;-66
2021/04/05 02:15:13;;;;;;;10.40;7.13;;;5.60;99.90;;;;;;5114329;28;20563;-66
2021/04/05 02:17:39;;;;;;;9.87;6.57;;;5.60;99.90;;;;;;5114036;28;20164;-66
2021/04/05 02:20:07;;;;;;;7.47;5.70;;;5.60;99.90;;;;;;5112424;28;21058;-66
2021/04/05 02:22:36;;;;;;;12.53;5.90;;;5.50;99.90;;;;;;5113774;28;20199;-66
2021/04/05 02:25:02;;;;;;;7.10;6.20;;;5.50;99.90;;;;;;5113848;28;20414;-66
2021/04/05 02:27:30;;;;;;;8.60;5.70;;;5.50;99.90;;;;;;5113647;28;20417;-66
2021/04/05 02:29:56;;;;;;;6.33;5.70;;;5.50;99.90;;;;;;5113483;28;20438;-66
2021/04/05 02:32:21;;;;;;;9.80;6.27;;;5.50;99.90;;;;;;5113762;28;20428;-66
2021/04/05 02:34:48;;;;;;;9.23;6.50;;;5.50;99.90;;;;;;5113672;28;20172;-66
2021/04/05 02:37:14;;;;;;;10.00;6.63;;;5.40;99.90;;;;;;5113612;28;20329;-66
2021/04/05 02:39:40;;;;;;;7.60;5.77;;;5.50;99.90;;;;;;5113294;28;20461;-66
2021/04/05 02:42:07;;;;;;;11.37;6.07;;;5.40;99.90;;;;;;5113368;28;20484;-66
2021/04/05 02:44:32;;;;;;;8.77;6.20;;;5.40;99.90;;;;;;5113687;28;20176;-66
2021/04/05 02:46:58;;;;;;;9.07;6.53;;;5.40;99.90;;;;;;5113409;28;20761;-66
2021/04/05 02:49:24;;;;;;;7.60;6.70;;;5.40;99.90;;;;;;5113347;28;20566;-66
2021/04/05 02:51:50;;;;;;;12.00;6.70;;;5.40;99.90;;;;;;5112980;28;20420;-66
2021/04/05 02:54:20;;;;;;;11.33;7.50;;;5.40;99.90;;;;;;5113321;28;20417;-66
2021/04/05 02:56:46;;;;;;;7.40;5.40;;;5.30;99.90;;;;;;5113169;28;20190;-66
2021/04/05 02:59:16;;;;;;;11.47;8.17;;;5.30;99.90;;;;;;5112884;28;20868;-66
2021/04/05 03:01:42;;;;;;;8.53;6.73;;;5.20;99.90;;;;;;5113048;28;20460;-66
2021/04/05 03:04:08;;;;;;;11.30;7.60;;;5.10;99.90;;;;;;5111831;28;20474;-66
2021/04/05 03:06:34;;;;;;;7.83;6.87;;;5.00;99.90;;;;;;5112960;28;20425;-66
2021/04/05 03:09:05;;;;;;;10.23;6.50;;;4.90;99.90;;;;;;5112754;28;20417;-66
2021/04/05 03:11:32;;;;;;;11.70;7.60;;;5.00;99.90;;;;;;5113367;28;20251;-66
2021/04/05 03:13:58;;;;;;;9.77;7.00;;;4.90;99.90;;;;;;5113196;28;20463;-66
2021/04/05 03:16:25;;;;;;;10.80;6.83;;;4.90;99.90;;;;;;5113460;28;20439;-66
2021/04/05 03:18:53;;;;;;;8.73;6.83;;;4.90;99.90;;;;;;5112856;28;20413;-66
2021/04/05 03:21:21;;;;;;;10.50;6.17;;;5.00;99.90;;;;;;5112391;28;20450;-66
2021/04/05 03:23:47;;;;;;;8.83;6.30;;;5.00;99.90;;;;;;5112675;28;20417;-66
2021/04/05 03:26:12;;;;;;;7.70;6.77;;;5.00;99.90;;;;;;5112578;28;20405;-66
2021/04/05 03:28:39;;;;;;;9.50;6.27;;;5.00;99.90;;;;;;5112561;28;20185;-66
2021/04/05 03:31:04;;;;;;;11.40;7.13;;;5.00;99.90;;;;;;5112350;28;20207;-66
2021/04/05 03:33:42;;;;;;;8.03;7.17;;;5.00;99.90;;;;;;5111263;28;20421;-66
2021/04/05 03:36:30;;;;;;;13.73;7.60;;;5.10;99.90;;;;;;5112420;28;20656;-66
2021/04/05 03:38:58;;;;;;;12.90;6.93;;;5.20;99.90;;;;;;5112500;28;20417;-66
2021/04/05 03:41:47;;;;;;;9.30;6.40;;;5.30;99.90;;;;;;5112350;28;20453;-66
2021/04/05 03:44:38;;;;;;;10.20;6.53;;;5.20;99.90;;;;;;5112238;28;20417;-66
2021/04/05 03:47:26;;;;;;;11.47;7.00;;;5.20;99.90;;;;;;5112235;28;20422;-66
2021/04/05 03:50:08;;;;;;;6.50;5.47;;;5.20;99.90;;;;;;5082651;28;20434;-66
2021/04/05 03:52:48;;;;;;;9.80;6.30;;;5.30;99.90;;;;;;5110910;28;20416;-66
2021/04/05 03:55:18;;;;;;;13.73;7.53;;;5.30;99.90;;;;;;5112112;28;20466;-66
2021/04/05 03:57:49;;;;;;;9.47;6.83;;;5.30;99.90;;;;;;5112084;28;20409;-66
2021/04/05 04:00:18;;;;;;;7.00;6.20;;;5.30;99.90;;;;;;5111772;28;20440;-66
2021/04/05 04:02:52;;;;;;;12.33;7.83;;;5.30;99.90;;;;;;5111292;28;20486;-66
2021/04/05 04:08:07;;;;;;;12.73;7.10;;;5.10;99.90;;;;;;5112249;28;20405;-66
2021/04/05 04:10:34;;;;;;;9.90;6.10;;;5.10;99.90;;;;;;5112013;28;20436;-66
2021/04/05 04:13:05;;;;;;;7.17;5.47;;;5.10;99.90;;;;;;5112196;28;20496;-66
2021/04/05 04:15:33;;;;;;;8.10;5.57;;;5.10;99.90;;;;;;5112172;28;20409;-68
2021/04/05 04:18:01;;;;;;;10.00;7.10;;;5.10;99.90;;;;;;5111702;28;20417;-66
2021/04/05 04:20:27;;;;;;;7.23;5.93;;;5.10;99.90;;;;;;5111186;28;20428;-66
2021/04/05 04:22:55;;;;;;;7.33;6.30;;;5.00;99.90;;;;;;5111805;28;20441;-66
2021/04/05 04:25:21;;;;;;;10.83;6.80;;;5.00;99.90;;;;;;5110327;28;20420;-66
2021/04/05 04:27:47;;;;;;;8.30;6.17;;;5.10;99.90;;;;;;5111577;28;20514;-66
2021/04/05 04:30:31;;;;;;;10.97;6.50;;;5.10;99.90;;;;;;5111134;28;20437;-66
2021/04/05 04:33:03;;;;;;;10.93;6.67;;;5.10;99.90;;;;;;5111475;28;20254;-68
2021/04/05 04:35:29;;;;;;;8.23;6.03;;;5.10;99.90;;;;;;5111493;28;20418;-68
2021/04/05 04:37:55;;;;;;;14.23;7.10;;;5.00;99.90;;;;;;5111481;28;20423;-68
2021/04/05 04:40:25;;;;;;;8.53;6.37;;;5.00;99.90;;;;;;5109693;28;20437;-68
2021/04/05 04:42:54;;;;;;;5.90;5.30;;;5.00;99.90;;;;;;5111428;28;20174;-68
2021/04/05 04:45:20;;;;;;;8.60;6.60;;;5.00;99.90;;;;;;5111243;28;20436;-68
2021/04/05 04:47:46;;;;;;;8.90;5.77;;;5.00;99.90;;;;;;5111179;28;20421;-67
2021/04/05 04:50:14;;;;;;;6.63;5.93;;;4.90;99.90;;;;;;5110969;28;20227;-67
2021/04/05 04:52:40;;;;;;;7.53;5.53;;;4.90;99.90;;;;;;5111154;28;20513;-67
2021/04/05 04:55:07;;;;;;;6.83;6.10;;;4.80;99.90;;;;;;5111201;28;20500;-67
2021/04/05 04:57:32;;;;;;;7.77;6.30;;;4.80;99.90;;;;;;5110953;28;20266;-67
2021/04/05 04:59:58;;;;;;;6.93;5.43;;;4.90;99.90;;;;;;5110787;28;20849;-67
2021/04/05 05:02:25;;;;;;;7.87;5.73;;;4.90;99.90;;;;;;5111083;28;20206;-67
2021/04/05 05:04:53;;;;;;;10.00;6.30;;;4.90;99.90;;;;;;5111156;28;20445;-68
2021/04/05 05:07:20;;;;;;;9.73;6.70;;;5.00;99.90;;;;;;5111516;28;20445;-67
2021/04/05 05:09:46;;;;;;;5.60;5.10;;;5.00;99.90;;;;;;5110719;28;20425;-67
2021/04/05 05:12:13;;;;;;;8.60;5.00;;;5.00;99.90;;;;;;5111044;28;20450;-68
2021/04/05 05:14:38;;;;;;;9.50;5.80;;;5.00;99.90;;;;;;5113782;28;20358;-67
2021/04/05 05:17:06;;;;;;;13.70;5.80;;;5.00;99.90;;;;;;5115167;28;20421;-68
2021/04/05 05:19:36;;;;;;;7.23;5.17;;;5.10;99.90;;;;;;5114971;28;20880;-67
2021/04/05 05:22:04;;;;;;;8.70;5.50;;;5.20;99.90;;;;;;5114957;28;20461;-67
2021/04/05 05:24:31;;;;;;;7.43;6.23;;;5.20;99.90;;;;;;5114823;28;20401;-67
2021/04/05 05:26:57;;;;;;;9.33;4.90;;;5.30;99.90;;;;;;5115031;28;20413;-67
2021/04/05 05:29:23;;;;;;;7.10;5.13;;;5.30;99.90;;;;;;5114847;28;20986;-68
2021/04/05 05:31:50;;;;;;;10.60;6.17;;;5.30;99.90;;;;;;5115104;28;20444;-67
2021/04/05 05:34:20;;;;;;;6.93;5.97;;;5.30;99.90;;;;;;5115157;28;20413;-67
2021/04/05 05:36:47;;;;;;;6.63;5.80;;;5.40;99.90;;;;;;5114941;28;20985;-67
2021/04/05 05:39:14;;;;;;;6.10;5.50;;;5.50;99.90;;;;;;5114960;28;20437;-67
2021/04/05 05:41:58;;;;;;;8.57;5.53;;;5.60;99.90;;;;;;5114713;28;20685;-67
2021/04/05 05:44:39;;;;;;;6.20;5.60;;;5.60;99.90;;;;;;5114644;28;20397;-67
2021/04/05 05:47:24;;;;;;;8.73;6.57;;;5.70;99.90;;;;;;5114535;28;20504;-67
2021/04/05 05:50:02;;;;;;;7.53;5.70;;;5.80;99.90;;;;;;5114281;28;20509;-67
2021/04/05 05:52:40;;;;;;;8.73;5.80;;;5.90;99.90;;;;;;5114501;28;20409;-68
2021/04/05 05:55:31;;;;;;;6.73;5.70;;;6.00;99.90;;;;;;5114485;28;20926;-68
2021/04/05 05:58:10;;;;;;;9.53;7.23;;;6.20;99.90;;;;;;5115174;28;20402;-67
2021/04/05 06:01:00;;;;;;;8.10;5.53;;;6.30;99.90;;;;;;5114261;28;20432;-67
2021/04/05 06:03:31;;;;;;;10.30;6.27;;;6.40;99.90;;;;;;5113924;28;20989;-68
2021/04/05 06:06:15;;;;;;;7.77;4.83;;;6.50;99.90;;;;;;5114335;28;20460;-67
2021/04/05 06:08:56;;;;;;;8.30;5.90;;;6.60;99.90;;;;;;5114279;28;20441;-68
2021/04/05 06:11:46;;;;;;;6.90;5.40;;;6.70;99.90;;;;;;5114113;28;20448;-67
2021/04/05 06:14:29;;;;;;;7.40;5.57;;;6.80;99.90;;;;;;5114061;28;20408;-67
2021/04/05 06:17:29;;;;;;;6.07;4.80;;;6.90;99.90;;;;;;5114243;28;20409;-68
2021/04/05 06:20:15;;;;;;;9.00;5.30;;;7.10;99.90;;;;;;5093225;28;20452;-67
2021/04/05 06:23:05;;;;;;;9.10;5.30;;;7.10;99.90;;;;;;5113743;28;20453;-68
2021/04/05 06:25:49;;;;;;;10.60;4.83;;;7.20;99.90;;;;;;5113382;27;20470;-68
2021/04/05 06:28:25;;;;;;;10.63;7.80;;;7.30;99.90;;;;;;5113886;28;20413;-68
2021/04/05 06:31:06;;;;;;;8.03;4.40;;;7.40;99.90;;;;;;5113475;28;20437;-67
2021/04/05 06:33:36;;;;;;;5.90;4.33;;;7.50;99.90;;;;;;5113718;28;20495;-68
2021/04/05 06:36:33;;;;;;;7.30;5.50;;;7.60;99.90;;;;;;5113688;28;20414;-68
2021/04/05 06:39:17;;;;;;;11.13;5.60;;;7.70;99.90;;;;;;5113521;28;20421;-68
2021/04/05 06:41:59;;;;;;;6.17;5.33;;;7.80;99.90;;;;;;5113550;28;20453;-68
2021/04/05 06:44:57;;;;;;;6.97;4.70;;;7.90;99.90;;;;;;5113576;28;20409;-67
2021/04/05 06:47:38;;;;;;;7.63;4.90;;;7.90;99.90;;;;;;5113483;28;20416;-68
2021/04/05 06:50:04;;;;;;;5.43;4.87;;;8.10;99.90;;;;;;5113190;28;20978;-68
2021/04/05 06:53:02;;;;;;;7.90;5.00;;;8.10;99.90;;;;;;5113356;28;20409;-68
2021/04/05 06:55:46;;;;;;;14.50;5.30;;;8.10;99.90;;;;;;5113340;28;20164;-68
2021/04/05 06:58:24;;;;;;;7.83;5.13;;;8.30;99.90;;;;;;5113228;28;20409;-68
2021/04/05 07:00:56;;;;;;;8.97;5.37;;;8.40;99.90;;;;;;5112795;28;20819;-68
2021/04/05 07:03:56;;;;;;;9.70;5.10;;;8.40;99.90;;;;;;5113312;28;20423;-68
2021/04/05 07:06:50;;;;;;;8.50;5.40;;;8.60;99.90;;;;;;5113232;28;20942;-67
2021/04/05 07:09:57;;;;;;;10.43;6.27;;;8.70;99.90;;;;;;5112923;28;20433;-68
2021/04/05 07:12:45;;;;;;;7.60;5.20;;;8.90;99.90;;;;;;5112943;28;20432;-68
2021/04/05 07:15:33;;;;;;;9.67;5.37;;;9.00;99.30;;;;;;5113225;28;20722;-68
2021/04/05 07:18:05;;;;;;;11.63;5.80;;;9.10;99.20;;;;;;5112921;28;20470;-67
2021/04/05 07:21:08;;;;;;;7.10;5.67;;;9.20;99.00;;;;;;5112413;28;20444;-68
2021/04/05 07:23:45;;;;;;;11.00;5.87;;;9.20;98.40;;;;;;5112913;28;20408;-68
2021/04/05 07:26:18;;;;;;;9.00;5.37;;;9.20;98.60;;;;;;5112641;28;20496;-68
2021/04/05 07:29:02;;;;;;;7.30;5.13;;;9.30;98.30;;;;;;5112785;28;20970;-68
2021/04/05 07:32:09;;;;;;;8.20;6.00;;;9.60;98.10;;;;;;5112677;28;20777;-68
2021/04/05 07:34:57;;;;;;;8.17;5.80;;;9.90;97.20;;;;;;5112691;28;20474;-68
2021/04/05 07:37:54;;;;;;;7.90;5.60;;;10.30;96.20;;;;;;5111602;28;20508;-68
2021/04/05 07:40:23;;;;;;;6.00;5.20;;;10.30;96.00;;;;;;5103605;28;20836;-68
2021/04/05 07:43:39;;;;;;;7.93;6.77;;;10.20;95.80;;;;;;5112734;28;20453;-68
2021/04/05 07:46:20;;;;;;;11.50;6.40;;;10.60;95.30;;;;;;5077625;28;20451;-68
2021/04/05 07:49:10;;;;;;;9.67;5.70;;;11.00;94.30;;;;;;5112515;28;20830;-68
2021/04/05 07:51:51;;;;;;;7.67;5.13;;;11.40;93.10;;;;;;5112217;28;20436;-68
2021/04/05 07:54:20;;;;;;;10.27;5.40;;;11.90;92.10;;;;;;5112089;28;20409;-67
2021/04/05 07:56:57;;;;;;;7.37;5.80;;;12.10;90.90;;;;;;5112213;28;20416;-67
2021/04/05 07:59:47;;;;;;;9.97;5.77;;;12.40;90.60;;;;;;5112411;28;20504;-68
2021/04/05 08:02:20;;;;;;;11.00;5.77;;;12.60;89.50;;;;;;5112124;28;20544;-68
2021/04/05 08:05:15;;;;;;;11.27;6.10;;;13.00;89.00;;;;;;5112020;28;20496;-68
2021/04/05 08:07:52;;;;;;;9.07;6.10;;;13.70;85.80;;;;;;5083731;28;20421;-68
2021/04/05 08:10:41;;;;;;;8.57;6.20;;;13.80;83.20;;;;;;5111708;28;20425;-68
2021/04/05 08:13:59;;;;;;;9.70;8.13;;;14.10;83.20;;;;;;5111907;28;20833;-68
2021/04/05 08:16:43;;;;;;;9.70;6.30;;;14.30;80.90;;;;;;5048621;28;20427;-67
2021/04/05 08:19:30;;;;;;;9.80;5.43;;;14.60;79.10;;;;;;5048365;28;20443;-66
2021/04/05 08:22:03;;;;;;;7.40;5.33;;;14.60;78.80;;;;;;5094856;28;20518;-67
2021/04/05 08:24:38;;;;;;;9.57;5.20;;;14.70;78.10;;;;;;5111807;28;20489;-67
2021/04/05 08:27:20;;;;;;;5.80;5.20;;;14.80;76.60;;;;;;5111882;28;20440;-67
2021/04/05 08:29:55;;;;;;;9.13;5.90;;;15.10;75.00;;;;;;5111512;28;20961;-67
2021/04/05 08:32:37;;;;;;;10.00;4.83;;;15.10;73.20;;;;;;5111736;28;20444;-67
2021/04/05 08:35:27;;;;;;;8.63;5.00;;;15.00;70.90;;;;;;5111690;28;20417;-67
2021/04/05 08:38:16;;;;;;;7.60;4.47;;;14.70;69.60;;;;;;5111581;28;20413;-67
2021/04/05 08:40:50;;;;;;;10.73;4.90;;;14.70;69.70;;;;;;5111534;28;20421;-67
2021/04/05 08:43:22;;;;;;;7.57;4.63;;;14.80;68.30;;;;;;5119510;28;20405;-68
2021/04/05 08:46:16;;;;;;;9.83;4.93;;;14.60;68.10;;;;;;5111771;28;20519;-68
2021/04/05 08:48:44;;;;;;;11.60;5.33;;;14.40;67.10;;;;;;5111437;28;20409;-68
2021/04/05 08:51:14;;;;;;;5.03;4.20;;;14.30;66.70;;;;;;5110995;28;20437;-68
2021/04/05 08:53:47;;;;;;;8.60;4.63;;;14.20;66.70;;;;;;5111365;28;20478;-67
2021/04/05 08:56:16;;;;;;;6.50;5.30;;;13.90;67.90;;;;;;5111302;28;20409;-67
2021/04/05 08:58:52;;;;;;;8.70;4.60;;;13.50;67.90;;;;;;5111290;28;20784;-67
2021/04/05 09:01:48;;;;;;;6.50;4.40;;;13.20;69.10;;;;;;5111065;28;20459;-68
2021/04/05 09:04:22;;;;;;;9.00;3.60;;;13.10;67.50;;;;;;5111543;28;20454;-67
2021/04/05 09:07:14;;;;;;;9.50;4.13;;;13.50;67.40;;;;;;5111494;28;20865;-68
2021/04/05 09:09:41;;;;;;;8.07;4.33;;;13.40;65.00;;;;;;5111177;28;21040;-67
2021/04/05 09:12:10;;;;;;;8.60;4.07;;;13.30;66.90;;;;;;5111558;28;20409;-67
2021/04/05 09:15:04;;;;;;;11.93;4.70;;;13.30;66.60;;;;;;5111238;28;20421;-67
2021/04/05 09:17:46;;;;;;;9.37;4.37;;;12.90;67.00;;;;;;5111312;28;20784;-68
2021/04/05 09:20:33;;;;;;;6.90;4.87;;;12.60;67.50;;;;;;5111059;28;20432;-67
2021/04/05 09:23:44;;;;;;;9.73;5.07;;;12.40;68.90;;;;;;5112739;28;20919;-67
2021/04/05 09:26:22;;;;;;;9.00;4.73;;;12.30;70.00;;;;;;5080541;28;20429;-68
2021/04/05 09:29:18;;;;;;;6.17;4.40;;;12.10;70.70;;;;;;5112550;28;20481;-67
2021/04/05 09:31:58;;;;;;;5.57;4.40;;;12.20;70.10;;;;;;5112228;28;20409;-67
2021/04/05 09:34:43;;;;;;;7.50;4.67;;;12.30;70.00;;;;;;5112140;28;20848;-67
2021/04/05 09:37:22;;;;;;;6.63;4.97;;;12.50;68.60;;;;;;5112162;28;20495;-67
2021/04/05 09:40:19;;;;;;;7.50;4.30;;;12.60;67.70;;;;;;5111728;28;20449;-67
2021/04/05 09:42:51;;;;;;;10.60;4.30;;;12.40;66.70;;;;;;5112605;28;20471;-68
2021/04/05 09:45:26;;;;;;;5.87;4.37;;;12.30;68.50;;;;;;5112426;28;20470;-67
2021/04/05 09:48:09;;;;;;;5.57;4.43;;;12.40;68.10;;;;;;5112201;28;20421;-67
2021/04/05 09:51:08;;;;;;;6.43;4.83;;;12.60;67.20;;;;;;5111686;28;20473;-67
2021/04/05 09:53:53;;;;;;;5.43;4.07;;;12.80;66.90;;;;;;5112170;28;20405;-67
2021/04/05 09:56:24;;;;;;;6.67;3.83;;;12.80;66.10;;;;;;5112464;28;20409;-67
2021/04/05 09:58:55;;;;;;;5.40;4.10;;;12.80;65.60;;;;;;5111831;28;20409;-68
2021/04/05 10:01:25;;;;;;;5.43;4.07;;;12.80;65.20;;;;;;5113885;28;20555;-67
2021/04/05 10:03:56;;;;;;;7.20;4.43;;;12.60;64.60;;;;;;5116255;28;20504;-67
2021/04/05 10:06:24;;;;;;;7.93;4.00;;;12.50;64.00;;;;;;5115802;28;20453;-67
2021/04/05 10:08:51;;;;;;;11.17;4.50;;;12.60;65.00;;;;;;5114780;28;20421;-67
2021/04/05 10:11:18;;;;;;;7.97;5.80;;;12.60;64.70;;;;;;5115581;28;20425;-67
2021/04/05 10:13:49;;;;;;;4.73;4.07;;;12.60;64.30;;;;;;5115793;28;20495;-67
2021/04/05 10:16:16;;;;;;;8.80;5.03;;;12.50;63.30;;;;;;5115453;28;20421;-67
2021/04/05 10:19:07;;;;;;;6.90;4.47;;;12.40;62.60;;;;;;5115369;28;20466;-67
2021/04/05 10:21:56;;;;;;;5.83;4.63;;;12.30;63.20;;;;;;5107030;28;20992;-68
2021/04/05 10:24:23;;;;;;;10.57;4.93;;;12.50;62.10;;;;;;5115627;28;20908;-67
2021/04/05 10:26:52;;;;;;;7.50;4.00;;;12.70;62.10;;;;;;5115138;28;20449;-67
2021/04/05 10:29:20;;;;;;;7.77;5.50;;;12.70;62.40;;;;;;5115180;28;20429;-67
2021/04/05 10:31:48;;;;;;;6.53;5.13;;;12.60;60.90;;;;;;5115672;28;20448;-67
2021/04/05 10:34:16;;;;;;;5.30;3.90;;;12.60;61.00;;;;;;5115046;28;20420;-67
2021/04/05 10:36:47;;;;;;;6.27;4.30;;;12.60;61.20;;;;;;5114903;28;20425;-67
2021/04/05 10:39:13;;;;;;;6.10;3.70;;;12.60;61.30;;;;;;5114299;28;20995;-67
2021/04/05 10:42:05;;;;;;;7.97;4.60;;;12.70;59.90;;;;;;5114118;28;20912;-67
2021/04/05 10:44:37;;;;;;;11.40;4.33;;;12.90;59.00;;;;;;5113086;28;20517;-67
2021/04/05 10:47:08;;;;;;;5.00;3.63;;;13.00;58.50;;;;;;5112737;28;20449;-67
2021/04/05 10:49:33;;;;;;;7.07;4.10;;;13.00;57.80;;;;;;5113505;28;20558;-67
2021/04/05 10:52:33;;;;;;;9.60;4.27;;;13.00;57.70;;;;;;5113808;28;20449;-67
2021/04/05 10:55:01;;;;;;;8.93;4.53;;;13.10;57.40;;;;;;5101954;28;20210;-67
2021/04/05 10:57:32;;;;;;;4.63;3.67;;;13.50;56.60;;;;;;5113652;28;20441;-67
2021/04/05 11:00:00;;;;;;;5.33;3.70;;;13.60;55.70;;;;;;5112442;28;20497;-67
2021/04/05 11:02:43;;;;;;;7.33;4.50;;;13.60;54.70;;;;;;5113151;28;20500;-67
2021/04/05 11:05:15;;;;;;;4.40;3.97;;;13.40;54.80;;;;;;5113875;28;20470;-67
2021/04/05 11:07:44;;;;;;;8.50;4.57;;;13.40;55.10;;;;;;5113463;28;20827;-67
2021/04/05 11:10:18;;;;;;;6.17;4.37;;;13.50;54.90;;;;;;5112904;28;20433;-67
2021/04/05 11:12:47;;;;;;;6.00;3.73;;;13.50;54.70;;;;;;5113316;28;20409;-67
2021/04/05 11:15:18;;;;;;;6.33;4.50;;;13.70;54.10;;;;;;5112057;28;20432;-67
2021/04/05 11:17:46;;;;;;;4.90;3.70;;;14.00;54.20;;;;;;5112620;28;20871;-67
2021/04/05 11:20:13;;;;;;;6.80;4.73;;;14.60;53.70;;;;;;5112576;28;20480;-67
2021/04/05 11:22:40;;;;;;;6.60;4.60;;;15.10;53.50;;;;;;5113060;28;20958;-67
2021/04/05 11:25:12;;;;;;;7.33;4.13;;;15.60;52.70;;;;;;5113853;28;20413;-67
2021/04/05 11:27:43;;;;;;;6.27;5.20;;;16.00;52.30;;;;;;5114241;28;20417;-67
2021/04/05 11:30:11;;;;;;;6.13;3.90;;;15.70;52.70;;;;;;5113477;28;20532;-67
2021/04/05 11:32:39;;;;;;;11.07;6.80;;;15.10;54.30;;;;;;5114188;28;20558;-67
2021/04/05 11:35:10;;;;;;;6.30;4.77;;;14.70;55.70;;;;;;5113438;28;20425;-67
2021/04/05 11:37:39;;;;;;;5.93;4.43;;;14.40;56.30;;;;;;5113568;28;20441;-67
2021/04/05 11:40:11;;;;;;;7.70;5.33;;;14.40;57.20;;;;;;5113179;28;20448;-65
2021/04/05 11:42:42;;;;;;;7.33;5.10;;;14.40;57.40;;;;;;5113273;28;20459;-67
2021/04/05 11:45:12;;;;;;;9.30;5.30;;;14.20;58.10;;;;;;5112646;28;20558;-67
2021/04/05 11:47:41;;;;;;;9.53;6.93;;;14.20;58.60;;;;;;5114070;28;20862;-67
2021/04/05 11:50:27;;;;;;;9.93;6.30;;;14.30;58.10;;;;;;5113285;28;20441;-67
2021/04/05 11:53:07;;;;;;;11.97;6.40;;;14.30;58.40;;;;;;5113552;28;20837;-67
2021/04/05 11:55:35;;;;;;;8.20;6.93;;;14.20;58.70;;;;;;5113550;28;20420;-67
2021/04/05 11:58:01;;;;;;;9.67;6.90;;;14.10;59.10;;;;;;5113686;28;20421;-67
2021/04/05 12:00:48;;;;;;;9.97;6.87;;;13.80;59.70;;;;;;5112065;28;20957;-67
2021/04/05 12:03:17;;;;;;;8.63;6.97;;;13.80;60.10;;;;;;5113604;28;20175;-67
2021/04/05 12:05:48;;;;;;;7.80;7.00;;;13.50;61.30;;;;;;5113764;28;20401;-67
2021/04/05 12:08:27;;;;;;;9.60;6.87;;;13.30;62.70;;;;;;5113680;28;20406;-67
2021/04/05 12:11:00;;;;;;;10.40;6.37;;;13.50;62.90;;;;;;5113105;28;20872;-67
2021/04/05 12:13:41;;;;;;;9.07;7.33;;;13.40;62.00;;;;;;5113372;28;20406;-68
2021/04/05 12:16:09;;;;;;;10.23;7.00;;;13.20;62.30;;;;;;5113160;28;20779;-67
2021/04/05 12:18:35;;;;;;;13.27;8.00;;;13.00;62.80;;;;;;5114048;28;20416;-67
2021/04/05 12:21:04;;;;;;;11.93;8.33;;;12.90;63.90;;;;;;5113151;28;20518;-67
2021/04/05 12:23:30;;;;;;;14.77;7.77;;;12.90;64.30;;;;;;5112935;28;20456;-67
2021/04/05 12:25:56;;;;;;;9.13;7.50;;;12.80;65.50;;;;;;5113099;28;21007;-67
2021/04/05 12:28:32;;;;;;;11.63;8.73;;;12.90;65.30;;;;;;5113010;28;20420;-67
2021/04/05 12:30:58;;;;;;;11.63;8.00;;;12.90;65.60;;;;;;5112656;28;20429;-67
2021/04/05 12:33:26;;;;;;;13.90;8.73;;;12.80;65.80;;;;;;5112723;28;20465;-67
2021/04/05 12:35:53;;;;;;;11.17;7.73;;;12.70;66.40;;;;;;5112736;28;20417;-67
2021/04/05 12:38:26;;;;;;;10.10;7.60;;;12.70;66.60;;;;;;5112836;28;20413;-67
2021/04/05 12:40:52;;;;;;;12.23;8.63;;;12.60;67.20;;;;;;5112434;28;20433;-67
2021/04/05 12:43:24;;;;;;;14.73;9.83;;;12.60;68.20;;;;;;5113141;28;20425;-67
2021/04/05 12:45:55;;;;;;;13.17;9.40;;;12.50;69.20;;;;;;5112818;28;20532;-67
2021/04/05 12:48:27;;;;;;;13.30;9.03;;;12.70;69.70;;;;;;5113078;28;20409;-67
2021/04/05 12:50:59;;;;;;;13.00;9.77;;;12.60;70.30;;;;;;5112510;28;20432;-67
2021/04/05 12:53:28;;;;;;;11.83;8.97;;;12.50;71.00;;;;;;5112768;28;20417;-67
2021/04/05 12:55:56;;;;;;;14.40;10.27;;;12.40;72.10;;;;;;5112797;28;20828;-67
2021/04/05 12:58:33;;;;;;;14.40;9.53;;;12.20;73.50;;;;;;5112479;28;20517;-67
2021/04/05 13:00:59;;;;;;;14.33;11.10;;;12.20;74.50;;;;;;5112250;28;20461;-67
2021/04/05 13:03:38;;;;;;;14.70;8.80;;;12.00;75.50;;;;;;5112766;28;20840;-67
2021/04/05 13:06:11;;;;;;;11.60;9.70;;;11.90;76.80;;;;;;5112526;28;20413;-67
2021/04/05 13:09:06;;;;;;;15.03;11.33;;;11.90;77.60;;;;;;5112337;28;20505;-67
2021/04/05 13:11:33;;;;;;;16.50;10.63;;;11.80;78.30;;;;;;5113016;28;20419;-68
2021/04/05 13:14:04;;;;;;;12.80;10.50;;;11.90;79.20;;;;;;5112514;28;20421;-67
2021/04/05 13:16:31;;;;;;;13.80;10.23;;;12.00;78.80;;;;;;5112758;28;20421;-67
2021/04/05 13:19:02;;;;;;;15.53;11.33;;;11.90;79.40;;;;;;5112196;28;20781;-67
2021/04/05 13:21:35;;;;;;;14.80;11.47;;;11.80;80.00;;;;;;5112524;28;20449;-67
2021/04/05 13:24:04;;;;;;;23.73;10.87;;;11.70;80.50;;;;;;5112734;28;20417;-67
2021/04/05 13:26:34;;;;;;;15.13;10.60;;;11.50;81.70;;;;;;5111972;28;20419;-69